createdAt,value
2022-08-20T00:01:10.115Z,100948.13
2022-08-20T00:03:40.389Z,101000.47
2022-08-20T00:06:20.783Z,101015.19
2022-08-20T00:08:47.610Z,101018.81
2022-08-20T00:11:19.128Z,101078.13
2022-08-20T00:13:56.219Z,101015.16
2022-08-20T00:16:26.050Z,101075.00
2022-08-20T00:18:53.365Z,101066.19
2022-08-20T00:21:21.185Z,101042.13
2022-08-20T00:23:50.676Z,101012.56
2022-08-20T00:26:18.561Z,101003.22
2022-08-20T00:28:45.173Z,101021.91
2022-08-20T00:31:14.375Z,101028.34
2022-08-20T00:33:41.388Z,101043.44
2022-08-20T00:36:10.797Z,101088.78
2022-08-20T00:38:39.942Z,101077.31
2022-08-20T00:41:09.936Z,101075.75
2022-08-20T00:44:04.891Z,101070.78
2022-08-20T00:46:33.190Z,100991.00
2022-08-20T00:49:09.925Z,100968.19
2022-08-20T00:52:08.826Z,101069.75
2022-08-20T00:55:52.995Z,100987.41
2022-08-20T00:58:19.676Z,101052.59
2022-08-20T01:00:47.795Z,101059.03
2022-08-20T01:03:17.615Z,100990.41
2022-08-20T01:05:46.956Z,101025.47
2022-08-20T01:08:14.830Z,101037.88
2022-08-20T01:10:44.751Z,101013.63
2022-08-20T01:13:14.583Z,101010.78
2022-08-20T01:15:44.100Z,101027.81
2022-08-20T01:18:17.776Z,101048.19
2022-08-20T01:20:52.701Z,101050.00
2022-08-20T01:23:28.383Z,101053.75
2022-08-20T01:26:18.501Z,101057.50
2022-08-20T01:28:52.971Z,101056.34
2022-08-20T01:31:25.972Z,101020.28
2022-08-20T01:33:54.103Z,101062.50
2022-08-20T01:36:27.141Z,101023.53
2022-08-20T01:38:54.756Z,100944.25
2022-08-20T01:42:05.081Z,101053.22
2022-08-20T01:44:32.674Z,100938.34
2022-08-20T01:47:22.330Z,101051.91
2022-08-20T01:50:03.183Z,101063.53
2022-08-20T01:52:57.666Z,101050.34
2022-08-20T01:55:24.445Z,100888.09
2022-08-20T01:57:50.884Z,101049.16
2022-08-20T02:00:20.509Z,101058.50
2022-08-20T02:02:49.410Z,101028.41
2022-08-20T02:05:16.282Z,100980.16
2022-08-20T02:07:43.016Z,101057.06
2022-08-20T02:10:18.996Z,101050.75
2022-08-20T02:12:45.664Z,101047.63
2022-08-20T02:15:12.964Z,101005.50
2022-08-20T02:17:40.983Z,100960.13
2022-08-20T02:20:11.804Z,101003.06
2022-08-20T02:22:38.186Z,101041.81
2022-08-20T02:25:08.913Z,101038.88
2022-08-20T02:27:36.945Z,101043.47
2022-08-20T02:30:11.188Z,101039.03
2022-08-20T02:32:48.427Z,101015.97
2022-08-20T02:35:15.919Z,100998.72
2022-08-20T02:37:44.179Z,100991.47
2022-08-20T02:40:15.270Z,101032.66
2022-08-20T02:42:42.598Z,100989.53
2022-08-20T02:45:11.594Z,101046.53
2022-08-20T02:47:46.311Z,101013.69
2022-08-20T02:50:17.348Z,101013.06
2022-08-20T02:52:51.536Z,101040.00
2022-08-20T02:55:28.105Z,100944.16
2022-08-20T02:58:02.083Z,101027.41
2022-08-20T03:00:32.193Z,101035.50
2022-08-20T03:03:05.891Z,101007.66
2022-08-20T03:05:32.523Z,101034.06
2022-08-20T03:08:02.474Z,101028.91
2022-08-20T03:10:33.417Z,100961.09
2022-08-20T03:13:11.060Z,101023.09
2022-08-20T03:15:43.117Z,100901.25
2022-08-20T03:18:14.053Z,100894.03
2022-08-20T03:20:41.851Z,101022.75
2022-08-20T03:23:08.339Z,101019.97
2022-08-20T03:25:35.759Z,101014.53
2022-08-20T03:28:02.727Z,100931.16
2022-08-20T03:30:30.380Z,101014.16
2022-08-20T03:32:58.235Z,101021.16
2022-08-20T03:35:27.075Z,101006.03
2022-08-20T03:37:54.020Z,100898.94
2022-08-20T03:40:25.141Z,100940.31
2022-08-20T03:42:54.465Z,100904.63
2022-08-20T03:45:22.896Z,100836.56
2022-08-20T03:47:50.244Z,100957.66
2022-08-20T03:50:23.573Z,100911.13
2022-08-20T03:52:52.277Z,101003.97
2022-08-20T03:55:20.223Z,100973.22
2022-08-20T03:57:54.198Z,100993.13
2022-08-20T04:00:27.039Z,100999.56
2022-08-20T04:02:53.605Z,101001.72
2022-08-20T04:05:21.342Z,100962.75
2022-08-20T04:07:47.749Z,100922.47
2022-08-20T04:10:14.411Z,100945.38
2022-08-20T04:12:48.688Z,100867.22
2022-08-20T04:15:20.377Z,101000.00
2022-08-20T04:17:52.729Z,101010.19
2022-08-20T04:20:28.863Z,101010.06
2022-08-20T04:22:59.049Z,101007.16
2022-08-20T04:25:29.862Z,100949.41
2022-08-20T04:28:05.479Z,100848.41
2022-08-20T04:30:32.990Z,101006.91
2022-08-20T04:33:02.682Z,100744.84
2022-08-20T04:35:30.626Z,101006.91
2022-08-20T04:38:09.703Z,101018.97
2022-08-20T04:40:58.291Z,100946.09
2022-08-20T04:43:28.311Z,100961.81
2022-08-20T04:46:01.698Z,100870.13
2022-08-20T04:48:29.388Z,100956.94
2022-08-20T04:50:57.198Z,101026.09
2022-08-20T04:53:27.893Z,101022.34
2022-08-20T04:55:57.110Z,101024.44
2022-08-20T04:58:34.429Z,101038.28
2022-08-20T05:01:05.678Z,101050.53
2022-08-20T05:03:32.973Z,101040.84
2022-08-20T05:06:03.963Z,101031.91
2022-08-20T05:08:31.386Z,101030.09
2022-08-20T05:11:33.886Z,100916.06
2022-08-20T05:13:52.752Z,101025.72
2022-08-20T05:16:20.136Z,101005.94
2022-08-20T05:18:48.736Z,101032.75
2022-08-20T05:21:19.240Z,101030.69
2022-08-20T05:23:45.735Z,100991.16
2022-08-20T05:26:13.006Z,100973.22
2022-08-20T05:28:53.900Z,101032.47
2022-08-20T05:31:32.665Z,100962.25
2022-08-20T05:34:11.785Z,101026.19
2022-08-20T05:36:45.491Z,100936.66
2022-08-20T05:39:14.479Z,100904.47
2022-08-20T05:41:41.095Z,101036.72
2022-08-20T05:44:14.061Z,101037.47
2022-08-20T05:46:43.363Z,101037.47
2022-08-20T05:49:16.251Z,101036.59
2022-08-20T05:51:44.005Z,100952.88
2022-08-20T05:54:10.937Z,101043.47
2022-08-20T05:56:37.781Z,101041.19
2022-08-20T05:59:08.404Z,100987.25
2022-08-20T06:01:37.522Z,101060.53
2022-08-20T06:04:23.574Z,101056.91
2022-08-20T06:06:52.238Z,101046.16
2022-08-20T06:09:31.346Z,101049.66
2022-08-20T06:12:03.630Z,100983.38
2022-08-20T06:14:33.042Z,101016.88
2022-08-20T06:17:09.424Z,101048.06
2022-08-20T06:19:37.470Z,101049.16
2022-08-20T06:22:08.559Z,100953.13
2022-08-20T06:24:47.611Z,101033.34
2022-08-20T06:27:18.789Z,101055.16
2022-08-20T06:29:45.582Z,101053.50
2022-08-20T06:32:12.009Z,101051.22
2022-08-20T06:34:49.851Z,100963.88
2022-08-20T06:37:30.908Z,101053.81
2022-08-20T06:40:04.445Z,100985.16
2022-08-20T06:42:30.912Z,101066.78
2022-08-20T06:44:59.542Z,100982.09
2022-08-20T06:47:25.975Z,101011.13
2022-08-20T06:49:53.551Z,100910.06
2022-08-20T06:52:20.043Z,101070.13
2022-08-20T06:54:56.402Z,101008.56
2022-08-20T06:57:22.838Z,101069.00
2022-08-20T06:59:54.180Z,101031.19
2022-08-20T07:02:20.915Z,101060.91
2022-08-20T07:04:57.496Z,101084.28
2022-08-20T07:07:23.910Z,101017.69
2022-08-20T07:09:51.263Z,101034.25
2022-08-20T07:12:17.871Z,101048.22
2022-08-20T07:14:44.347Z,101049.22
2022-08-20T07:17:12.216Z,101085.34
2022-08-20T07:19:39.033Z,101073.72
2022-08-20T07:22:06.406Z,101113.84
2022-08-20T07:24:34.294Z,101065.81
2022-08-20T07:27:02.254Z,101069.09
2022-08-20T07:29:48.645Z,101022.66
2022-08-20T07:32:33.486Z,101092.38
2022-08-20T07:35:11.692Z,101121.69
2022-08-20T07:37:41.438Z,101118.56
2022-08-20T07:40:12.064Z,101046.63
2022-08-20T07:42:41.759Z,101117.69
2022-08-20T07:45:13.553Z,101110.34
2022-08-20T07:47:41.735Z,101125.19
2022-08-20T07:50:13.850Z,101101.22
2022-08-20T07:52:40.463Z,101131.97
2022-08-20T07:55:10.638Z,101117.97
2022-08-20T07:57:37.918Z,101140.72
2022-08-20T08:00:05.900Z,100969.31
2022-08-20T08:02:32.303Z,101124.09
2022-08-20T08:04:58.793Z,101148.78
2022-08-20T08:07:28.440Z,101150.47
2022-08-20T08:09:56.843Z,101132.88
2022-08-20T08:12:25.276Z,101151.97
2022-08-20T08:14:52.550Z,101140.09
2022-08-20T08:17:19.175Z,100996.34
2022-08-20T08:19:50.195Z,101096.91
2022-08-20T08:22:20.669Z,101151.97
2022-08-20T08:24:56.750Z,101082.06
2022-08-20T08:27:24.001Z,101159.50
2022-08-20T08:29:57.550Z,101087.00
2022-08-20T08:32:24.658Z,101141.50
2022-08-20T08:34:52.702Z,101100.34
2022-08-20T08:37:19.230Z,101118.44
2022-08-20T08:39:45.658Z,101106.53
2022-08-20T08:42:37.091Z,101174.56
2022-08-20T08:45:10.735Z,101091.97
2022-08-20T08:47:39.048Z,101161.34
2022-08-20T08:50:10.216Z,101161.53
2022-08-20T08:52:42.590Z,101128.94
2022-08-20T08:55:15.874Z,101093.84
2022-08-20T08:57:43.409Z,101097.78
2022-08-20T09:00:19.268Z,101156.44
2022-08-20T09:03:01.301Z,101178.47
2022-08-20T09:05:53.867Z,101181.84
2022-08-20T09:08:25.931Z,101178.59
2022-08-20T09:11:04.407Z,101191.81
2022-08-20T09:13:34.404Z,101026.78
2022-08-20T09:16:01.001Z,101164.63
2022-08-20T09:18:31.043Z,101184.47
2022-08-20T09:21:02.033Z,101190.69
2022-08-20T09:23:28.398Z,101065.00
2022-08-20T09:25:54.943Z,101153.25
2022-08-20T09:28:21.342Z,101202.38
2022-08-20T09:30:47.972Z,101112.28
2022-08-20T09:33:14.449Z,101180.72
2022-08-20T09:35:41.043Z,101181.69
2022-08-20T09:38:08.183Z,101203.34
2022-08-20T09:40:34.756Z,101153.09
2022-08-20T09:43:01.501Z,101169.28
2022-08-20T09:45:27.875Z,101148.34
2022-08-20T09:47:54.964Z,101143.22
2022-08-20T09:50:24.235Z,101126.31
2022-08-20T09:52:57.512Z,101194.03
2022-08-20T09:55:38.263Z,101220.97
2022-08-20T09:58:19.785Z,101220.19
2022-08-20T10:00:46.981Z,101199.91
2022-08-20T10:03:13.521Z,101171.72
2022-08-20T10:05:40.259Z,101123.69
2022-08-20T10:08:08.754Z,101108.94
2022-08-20T10:10:35.412Z,101197.28
2022-08-20T10:13:04.634Z,101186.47
2022-08-20T10:15:31.708Z,101184.09
2022-08-20T10:17:58.431Z,101013.72
2022-08-20T10:20:25.462Z,101218.81
2022-08-20T10:22:55.779Z,101163.53
2022-08-20T10:25:22.187Z,101171.94
2022-08-20T10:27:52.888Z,101176.00
2022-08-20T10:30:19.332Z,101169.97
2022-08-20T10:32:45.838Z,101209.34
2022-08-20T10:35:12.393Z,101127.53
2022-08-20T10:37:41.222Z,101172.09
2022-08-20T10:40:08.517Z,101181.03
2022-08-20T10:42:37.955Z,101221.72
2022-08-20T10:45:09.162Z,101161.28
2022-08-20T10:47:35.627Z,101164.16
2022-08-20T10:50:04.473Z,101217.34
2022-08-20T10:52:30.860Z,101187.09
2022-08-20T10:54:57.496Z,101202.22
2022-08-20T10:57:29.522Z,101194.59
2022-08-20T11:00:01.225Z,101235.88
2022-08-20T11:02:28.086Z,101077.91
2022-08-20T11:04:55.997Z,101222.41
2022-08-20T11:07:54.988Z,101227.31
2022-08-20T11:10:18.890Z,101220.91
2022-08-20T11:12:46.626Z,101239.47
2022-08-20T11:15:13.885Z,101169.78
2022-08-20T11:17:42.658Z,101172.03
2022-08-20T11:20:11.645Z,101237.63
2022-08-20T11:22:38.350Z,101228.09
2022-08-20T11:25:06.741Z,101217.00
2022-08-20T11:27:40.184Z,101245.78
2022-08-20T11:30:09.736Z,101228.25
2022-08-20T11:32:38.477Z,101116.19
2022-08-20T11:35:24.484Z,101200.88
2022-08-20T11:37:57.268Z,101217.69
2022-08-20T11:40:27.513Z,101230.25
2022-08-20T11:43:13.701Z,101168.88
2022-08-20T11:45:43.158Z,101227.28
2022-08-20T11:48:09.683Z,101221.25
2022-08-20T11:50:36.554Z,101148.88
2022-08-20T11:53:03.278Z,101217.22
2022-08-20T11:55:30.295Z,101228.31
2022-08-20T11:57:59.854Z,101228.84
2022-08-20T12:00:31.854Z,101211.53
2022-08-20T12:03:04.995Z,101230.72
2022-08-20T12:05:32.608Z,101235.03
2022-08-20T12:08:01.426Z,101127.06
2022-08-20T12:10:28.650Z,101230.16
2022-08-20T12:12:56.661Z,101211.41
2022-08-20T12:15:24.065Z,101239.03
2022-08-20T12:17:50.871Z,101210.72
2022-08-20T12:20:17.592Z,101205.34
2022-08-20T12:22:44.640Z,101157.44
2022-08-20T12:25:13.156Z,101208.72
2022-08-20T12:27:40.218Z,101083.25
2022-08-20T12:30:10.805Z,101219.91
2022-08-20T12:32:37.713Z,101210.31
2022-08-20T12:35:05.787Z,101179.00
2022-08-20T12:37:32.878Z,101153.47
2022-08-20T12:40:00.997Z,101224.19
2022-08-20T12:42:30.276Z,101172.59
2022-08-20T12:45:00.373Z,101195.97
2022-08-20T12:47:36.150Z,101211.13
2022-08-20T12:50:10.003Z,101227.56
2022-08-20T12:52:37.265Z,101177.47
2022-08-20T12:55:05.987Z,101041.91
2022-08-20T12:57:36.098Z,101202.69
2022-08-20T13:00:08.101Z,101208.75
2022-08-20T13:02:34.861Z,101210.59
2022-08-20T13:05:09.102Z,101215.63
2022-08-20T13:07:36.377Z,101210.94
2022-08-20T13:10:05.323Z,101209.41
2022-08-20T13:12:31.822Z,101127.69
2022-08-20T13:15:01.040Z,101229.06
2022-08-20T13:17:38.756Z,101153.03
2022-08-20T13:20:09.414Z,101225.16
2022-08-20T13:22:40.318Z,100978.75
2022-08-20T13:25:07.883Z,101168.41
2022-08-20T13:27:38.281Z,101215.25
2022-08-20T13:30:07.837Z,101216.41
2022-08-20T13:32:34.506Z,101205.66
2022-08-20T13:35:01.026Z,101196.50
2022-08-20T13:37:29.203Z,101203.50
2022-08-20T13:39:56.818Z,101180.63
2022-08-20T13:42:23.426Z,101200.09
2022-08-20T13:44:50.344Z,101205.03
2022-08-20T13:47:25.751Z,101202.69
2022-08-20T13:50:02.199Z,101137.97
2022-08-20T13:52:28.938Z,101190.91
2022-08-20T13:54:55.379Z,101157.41
2022-08-20T13:57:24.669Z,101193.91
2022-08-20T13:59:54.017Z,101188.50
2022-08-20T14:02:21.079Z,101082.34
2022-08-20T14:04:48.680Z,101108.88
2022-08-20T14:07:22.142Z,101176.53
2022-08-20T14:09:53.773Z,101105.28
2022-08-20T14:12:23.125Z,101200.00
2022-08-20T14:14:51.657Z,101199.16
2022-08-20T14:17:24.462Z,101196.88
2022-08-20T14:19:53.587Z,101135.25
2022-08-20T14:22:21.926Z,101209.38
2022-08-20T14:24:49.777Z,101204.66
2022-08-20T14:27:19.742Z,101205.88
2022-08-20T14:29:48.052Z,101199.28
2022-08-20T14:32:15.522Z,101173.59
2022-08-20T14:34:42.041Z,101150.25
2022-08-20T14:37:25.120Z,101198.91
2022-08-20T14:39:53.776Z,101132.09
2022-08-20T14:42:22.982Z,101192.13
2022-08-20T14:44:50.446Z,101061.22
2022-08-20T14:47:21.901Z,101194.03
2022-08-20T14:49:53.001Z,101208.50
2022-08-20T14:52:20.886Z,101163.47
2022-08-20T14:54:49.045Z,101184.16
2022-08-20T14:57:18.261Z,101131.25
2022-08-20T14:59:48.372Z,101194.56
2022-08-20T15:02:16.947Z,101033.63
2022-08-20T15:04:43.781Z,101207.22
2022-08-20T15:07:30.011Z,101217.00
2022-08-20T15:09:57.872Z,101212.03
2022-08-20T15:12:24.639Z,101098.16
2022-08-20T15:14:51.467Z,101157.59
2022-08-20T15:17:27.778Z,101219.78
2022-08-20T15:19:55.551Z,101076.81
2022-08-20T15:22:22.951Z,101000.72
2022-08-20T15:24:57.571Z,101191.94
2022-08-20T15:27:25.297Z,101113.22
2022-08-20T15:29:53.590Z,101213.75
2022-08-20T15:32:21.276Z,101233.28
2022-08-20T15:34:48.162Z,101202.69
2022-08-20T15:37:23.137Z,101229.75
2022-08-20T15:39:50.509Z,101206.53
2022-08-20T15:42:18.650Z,101212.25
2022-08-20T15:44:46.202Z,101220.81
2022-08-20T15:47:27.694Z,101225.19
2022-08-20T15:50:00.697Z,101059.03
2022-08-20T15:52:32.507Z,101223.69
2022-08-20T15:55:01.442Z,101231.91
2022-08-20T15:57:36.997Z,101229.03
2022-08-20T16:00:15.718Z,101222.50
2022-08-20T16:02:58.651Z,101235.81
2022-08-20T16:06:02.403Z,101238.16
2022-08-20T16:08:42.682Z,101244.22
2022-08-20T16:11:42.224Z,101242.72
2022-08-20T16:14:11.377Z,101240.72
2022-08-20T16:16:59.130Z,101161.91
2022-08-20T16:19:34.842Z,101257.03
2022-08-20T16:22:04.610Z,101156.91
2022-08-20T16:24:34.450Z,100954.03
2022-08-20T16:27:22.659Z,101242.84
2022-08-20T16:30:07.260Z,101200.22
2022-08-20T16:32:45.782Z,101253.41
2022-08-20T16:35:29.032Z,101256.53
2022-08-20T16:38:05.606Z,101245.78
2022-08-20T16:41:11.058Z,101253.75
2022-08-20T16:43:45.610Z,101202.59
2022-08-20T16:46:21.471Z,101144.47
2022-08-20T16:48:56.130Z,101127.84
2022-08-20T16:51:51.958Z,101114.66
2022-08-20T16:54:29.562Z,101265.28
2022-08-20T16:57:01.384Z,101259.19
2022-08-20T16:59:30.130Z,101168.47
2022-08-20T17:02:18.430Z,101074.88
2022-08-20T17:04:59.275Z,101082.78
2022-08-20T17:07:46.152Z,101202.72
2022-08-20T17:10:27.212Z,101268.47
2022-08-20T17:13:05.145Z,101267.03
2022-08-20T17:15:33.957Z,101269.94
2022-08-20T17:18:25.563Z,101269.03
2022-08-20T17:20:53.142Z,101275.31
2022-08-20T17:23:24.223Z,101154.44
2022-08-20T17:26:31.139Z,101156.44
2022-08-20T17:29:00.719Z,101283.84
2022-08-20T17:31:43.293Z,101275.59
2022-08-20T17:34:24.208Z,101240.38
2022-08-20T17:37:19.479Z,101280.19
2022-08-20T17:39:49.983Z,101187.69
2022-08-20T17:42:28.370Z,101133.94
2022-08-20T17:45:15.310Z,101181.81
2022-08-20T17:47:43.809Z,101125.78
2022-08-20T17:50:20.399Z,101292.00
2022-08-20T17:52:50.821Z,101182.50
2022-08-20T17:55:19.652Z,101049.25
2022-08-20T17:57:49.905Z,101005.06
2022-08-20T18:00:23.518Z,101174.50
2022-08-20T18:03:01.364Z,100929.75
2022-08-20T18:05:34.435Z,101313.22
2022-08-20T18:08:09.885Z,101314.19
2022-08-20T18:11:07.481Z,101273.66
2022-08-20T18:13:48.402Z,101291.53
2022-08-20T18:16:25.764Z,101292.69
2022-08-20T18:19:02.354Z,101145.47
2022-08-20T18:21:52.354Z,101184.84
2022-08-20T18:24:26.255Z,101237.84
2022-08-20T18:26:59.445Z,101271.16
2022-08-20T18:29:33.176Z,101277.09
2022-08-20T18:32:02.447Z,101252.25
2022-08-20T18:34:29.539Z,101324.63
2022-08-20T18:37:16.829Z,101324.00
2022-08-20T18:39:48.436Z,101326.03
2022-08-20T18:42:34.954Z,101329.78
2022-08-20T18:45:01.638Z,101203.84
2022-08-20T18:47:33.692Z,101340.00
2022-08-20T18:50:16.789Z,101265.91
2022-08-20T18:52:49.529Z,101224.75
2022-08-20T18:55:30.548Z,101323.22
2022-08-20T18:58:06.822Z,101232.06
2022-08-20T19:00:46.177Z,101342.84
2022-08-20T19:03:18.572Z,101059.09
2022-08-20T19:05:45.147Z,101347.03
2022-08-20T19:08:19.930Z,101321.00
2022-08-20T19:11:10.659Z,101321.41
2022-08-20T19:13:40.167Z,101188.78
2022-08-20T19:16:38.781Z,101171.97
2022-08-20T19:19:15.286Z,101185.38
2022-08-20T19:21:42.715Z,101299.66
2022-08-20T19:24:14.408Z,101359.66
2022-08-20T19:26:55.004Z,101362.91
2022-08-20T19:29:27.565Z,101205.91
2022-08-20T19:31:59.387Z,101325.41
2022-08-20T19:34:26.910Z,101243.09
2022-08-20T19:37:02.583Z,101349.00
2022-08-20T19:39:36.949Z,101234.00
2022-08-20T19:42:15.257Z,101195.91
2022-08-20T19:44:53.334Z,101328.00
2022-08-20T19:47:32.469Z,101368.09
2022-08-20T19:50:21.619Z,101366.81
2022-08-20T19:52:56.771Z,101368.97
2022-08-20T19:55:30.666Z,101373.81
2022-08-20T19:58:00.262Z,101339.13
2022-08-20T20:00:29.946Z,101374.94
2022-08-20T20:02:56.792Z,101178.34
2022-08-20T20:05:23.489Z,101263.88
2022-08-20T20:07:57.168Z,101391.81
2022-08-20T20:10:32.456Z,101304.91
2022-08-20T20:13:08.330Z,101314.50
2022-08-20T20:15:35.950Z,101138.72
2022-08-20T20:18:02.557Z,101293.59
2022-08-20T20:20:33.438Z,101237.75
2022-08-20T20:23:12.202Z,101378.75
2022-08-20T20:25:45.129Z,101327.06
2022-08-20T20:28:22.729Z,101278.84
2022-08-20T20:30:49.769Z,101200.66
2022-08-20T20:33:35.525Z,101326.88
2022-08-20T20:36:11.022Z,101336.31
2022-08-20T20:38:51.807Z,101194.25
2022-08-20T20:41:23.039Z,101385.88
2022-08-20T20:44:01.013Z,101393.47
2022-08-20T20:46:30.056Z,101265.78
2022-08-20T20:49:12.184Z,101405.50
2022-08-20T20:51:41.404Z,101398.50
2022-08-20T20:54:25.169Z,101297.63
2022-08-20T20:57:03.879Z,101375.00
2022-08-20T20:59:33.966Z,101373.22
2022-08-20T21:02:01.033Z,100777.09
2022-08-20T21:04:28.070Z,101334.88
2022-08-20T21:06:56.830Z,101097.53
2022-08-20T21:09:24.762Z,101240.91
2022-08-20T21:11:52.110Z,101367.16
2022-08-20T21:14:18.618Z,101236.22
2022-08-20T21:16:45.287Z,101333.13
2022-08-20T21:19:12.802Z,101374.28
2022-08-20T21:21:40.000Z,101313.84
2022-08-20T21:24:07.242Z,101309.28
2022-08-20T21:26:34.323Z,101249.94
2022-08-20T21:29:00.855Z,101243.03
2022-08-20T21:31:33.441Z,101173.91
2022-08-20T21:34:00.061Z,101376.22
2022-08-20T21:36:26.891Z,101381.88
2022-08-20T21:38:53.770Z,101339.44
2022-08-20T21:41:29.603Z,101327.88
2022-08-20T21:43:58.135Z,101389.13
2022-08-20T21:46:25.909Z,101252.03
2022-08-20T21:48:55.095Z,101376.16
2022-08-20T21:51:21.638Z,101388.66
2022-08-20T21:53:48.269Z,101189.19
2022-08-20T21:56:14.715Z,101281.63
2022-08-20T21:58:41.693Z,101289.00
2022-08-20T22:01:08.185Z,101215.53
2022-08-20T22:03:38.904Z,101263.69
2022-08-20T22:06:09.516Z,101370.94
2022-08-20T22:08:36.424Z,101321.38
2022-08-20T22:11:04.800Z,101339.00
2022-08-20T22:13:33.135Z,101300.88
2022-08-20T22:16:01.236Z,101147.31
2022-08-20T22:18:28.441Z,101135.56
2022-08-20T22:20:55.016Z,101319.00
2022-08-20T22:23:21.531Z,101128.94
2022-08-20T22:25:48.540Z,101053.78
2022-08-20T22:28:14.996Z,101169.44
2022-08-20T22:30:42.572Z,101186.72
2022-08-20T22:33:12.600Z,101346.28
2022-08-20T22:35:43.969Z,101207.75
2022-08-20T22:38:10.733Z,101216.38
2022-08-20T22:40:37.391Z,100991.97
2022-08-20T22:43:06.750Z,101274.81
2022-08-20T22:45:33.314Z,101137.91
2022-08-20T22:48:00.602Z,101231.63
2022-08-20T22:50:28.297Z,101256.56
2022-08-20T22:52:55.144Z,101283.41
2022-08-20T22:55:21.559Z,101242.78
2022-08-20T22:57:48.781Z,101165.97
2022-08-20T23:00:17.147Z,101375.22
2022-08-20T23:02:47.997Z,101075.09
2022-08-20T23:05:20.141Z,101368.28
2022-08-20T23:07:51.905Z,101207.88
2022-08-20T23:10:20.446Z,101285.38
2022-08-20T23:12:46.914Z,101286.47
2022-08-20T23:15:13.420Z,101153.34
2022-08-20T23:17:39.980Z,101216.56
2022-08-20T23:20:08.810Z,101199.22
2022-08-20T23:22:35.782Z,101187.50
2022-08-20T23:25:04.638Z,101358.53
2022-08-20T23:27:32.772Z,101141.63
2022-08-20T23:29:59.446Z,101189.03
2022-08-20T23:32:26.134Z,101258.75
2022-08-20T23:34:52.724Z,101083.44
2022-08-20T23:37:19.799Z,101289.56
2022-08-20T23:39:46.525Z,101082.53
2022-08-20T23:42:14.223Z,101189.75
2022-08-20T23:44:40.983Z,101133.47
2022-08-20T23:47:08.503Z,101190.88
2022-08-20T23:49:35.187Z,101185.66
2022-08-20T23:52:01.603Z,101124.59
2022-08-20T23:54:30.341Z,101267.53
2022-08-20T23:56:57.643Z,101137.16
2022-08-20T23:59:24.605Z,101342.34
